Startpagina
METAR-TAF:

METAR-TAF

Vliegvelden :

Aeropuerto Internacional Silvio Pettirossi

Asunción, Paraguay

breedte: 25-16S, lengte: 057-38W, hoogte: 101 m

Actueel weer

Dit bericht is 54 minuten geleden gemaakt, om 18:00 UTC
Wind 6 kt uit het zuiden, variërend tussen het oostzuidoosten en het westen
Temperatuur 27°C
Vochtigheid 48%
Druk 1010 hPa
Zicht 10 km of meer
Weinig wolken op 3300 ft

METAR: SGAS 151800Z 19006KT 120V270 9999 FEW033 27/15 Q1010

Tijdstip: 15:54 (18:54 UTC)

Verwachting

Dit bericht is 2 uur en het 29 minuten geleden gemaakt, om 16:25 UTC
Verwachting geldig van 15 om 18 UTC tot 16 om 18 UTC
Wind 7 kt uit het zuidzuidwesten
Zicht 10 km of meer
Verspreide wolken op 3300 ft
Wijzigt naar
van 15 om 22 UTC tot 16 om 01 UTC
Wind 6 kt uit het zuiden
Zicht 10 km of meer
geen wolken onder 1500 m en geen cumulonimbus

TAF: SGAS 151625Z 1518/1618 20007KT 9999 SCT033 TX28/1519Z TN18/1609Z BECMG 1522/1601 19006KT CAVOK

Waarnemingen en weersverwachtingen van meer dan 4000 vliegvelden (METAR en TAF).

De beschikbare stations zijn de gele en rode punten op de kaart.

Ga met uw muis naar het station om de naam te zien.

Klik dan om waarnemingen en weersverwachtingen te zien.

kaart wijzigen: klik op de groene knoppen met een zwart kruis om in te zoomen, op de groene knop met een streepje om uit te zoomen of op de groene pijlen voor aangrenzende kaarten.


METAR-TAF: